Auriesville, NY (12016)

9:35 AM EDT on March 26, 2017 (GMT -0400)
Dykeman Farms | | Change Station
Active Advisory: Freezing Rain Advisory

Elev 505 ft 42.91 °N, 74.36 °W | Updated 2 minutes ago

Overcast
Overcast
29.7 °F
Feels Like 23 °F
N
7.0
Wind Variable Wind from ESE
Gusts 11.0 mph

Today
High -- | Low -- °F
--% Chance of Precip.
Yesterday
High -- | Low -- °F
Precip. -- in
Pressure 30.49 in
Visibility 15.0 miles
Clouds Overcast 6500 ft
Windchill 23 °F
Dew Point 23 °F
Humidity 75%
Rainfall 0.00 in
Snow Depth Not available.
6:49 AM 7:16 PM
Waning Crescent, 3% visible
METAR KSCH 261255Z 05004KT 15SM OVC065 M02/M06 A3049
Pressure 30.49 in
Visibility 15.0 miles
Clouds Overcast 6500 ft
Windchill 23 °F
Dew Point 23 °F
Humidity 75%
Rainfall 0.00 in
Snow Depth Not available.
6:49 AM 7:16 PM
Waning Crescent, 3% visible
METAR KSCH 261255Z 05004KT 15SM OVC065 M02/M06 A3049

Get Your Daily Forecast Email!

Thanks for signing up!

Be on the lookout for a verification email in your inbox.

You'll start receiving severe weather alerts in your inbox..

×

10-Day Weather Forecast

Almanac

Astronomy

Mar. 26, 2017 Rise Set
Actual Time
Civil Twilight
Nautical Twilight
Astronomical Twilight
Moon
Length of Visible Light
Length of Day
Tomorrow will be .
, % of the Moon is Illuminated

Today's Extremes

State Highs State Lows

Community

WunderPhotos

Upload Photos

1,962,540 photos uploaded!

WunderBlog® & News

Nearby

Air Quality

  Air Quality AQ Index Pollutant
Not available.

Snow Depth

Station Depth Elevation

Earthquake Activity

City Distance Mag. Time & Date
Minimum magnitude displayed is 2.5.

Earthquake Activity

City Distance Mag. Time & Date
Minimum magnitude displayed is 2.5.

Coastal Water Temperatures

Place Temperature

Stations

Nearby Weather Stations

Station Location Temp. Windchill Dew Point Humidity Wind Precip. Elev Updated Type
                   

Watches & Warnings

Freezing Rain Advisory
Issued: 6:44 AM EDT Mar. 26, 2017 – National Weather Service

... Freezing Rain Advisory remains in effect until 4 PM EDT this
afternoon...

* locations... western and central Mohawk Valley, helderbergs,
Schoharie valley, Adirondacks and eastern Catskills.

* Hazard types... freezing rain.

* Ice accumulations... a coating to less than a tenth of an inch.

* Timing... shortly before sunrise and into the early afternoon a
little sleet will mix with freezing rain.

* Impacts... hazardous travel due to icy roads.

* Temperatures... in the upper 20s and lower 30s.

Precautionary/preparedness actions...

A Freezing Rain Advisory means that periods of freezing rain or
freezing drizzle will cause travel difficulties. Be prepared for
slippery roads. Slow down and use caution while driving.